createdAt,value
2017-12-14T00:02:12.363Z,20.77
2017-12-14T00:04:39.113Z,19.40
2017-12-14T00:07:05.851Z,18.00
2017-12-14T00:09:32.578Z,20.80
2017-12-14T00:11:59.433Z,20.30
2017-12-14T00:14:26.147Z,21.10
2017-12-14T00:16:52.983Z,18.77
2017-12-14T00:19:19.726Z,19.60
2017-12-14T00:21:46.481Z,20.53
2017-12-14T00:24:12.797Z,20.40
2017-12-14T00:26:39.531Z,19.60
2017-12-14T00:29:06.277Z,20.00
2017-12-14T00:31:33.004Z,20.90
2017-12-14T00:33:59.794Z,21.17
2017-12-14T00:36:26.505Z,19.60
2017-12-14T00:38:53.247Z,19.73
2017-12-14T00:41:19.975Z,19.90
2017-12-14T00:43:46.726Z,21.83
2017-12-14T00:46:13.467Z,18.50
2017-12-14T00:48:40.261Z,20.50
2017-12-14T00:51:07.023Z,20.43
2017-12-14T00:53:33.829Z,21.30
2017-12-14T00:56:00.592Z,20.83
2017-12-14T00:58:27.330Z,21.73
2017-12-14T01:00:54.068Z,21.27
2017-12-14T01:03:20.812Z,21.40
2017-12-14T01:05:47.550Z,21.30
2017-12-14T01:08:14.267Z,21.63
2017-12-14T01:10:41.032Z,21.73
2017-12-14T01:13:07.745Z,22.20
2017-12-14T01:15:34.477Z,21.93
2017-12-14T01:18:01.209Z,19.53
2017-12-14T01:20:27.961Z,20.60
2017-12-14T01:22:54.692Z,21.60
2017-12-14T01:25:21.436Z,22.40
2017-12-14T01:27:48.176Z,22.30
2017-12-14T01:30:14.920Z,23.00
2017-12-14T01:32:41.658Z,22.93
2017-12-14T01:35:08.380Z,20.67
2017-12-14T01:37:35.111Z,22.57
2017-12-14T01:40:01.891Z,22.67
2017-12-14T01:42:28.641Z,22.40
2017-12-14T01:44:55.460Z,23.07
2017-12-14T01:47:22.222Z,23.20
2017-12-14T01:49:48.949Z,22.83
2017-12-14T01:52:15.695Z,21.93
2017-12-14T01:54:42.451Z,22.10
2017-12-14T01:57:09.185Z,22.70
2017-12-14T01:59:35.893Z,23.23
2017-12-14T02:02:02.670Z,22.20
2017-12-14T02:04:29.400Z,22.70
2017-12-14T02:06:56.146Z,24.07
2017-12-14T02:09:22.920Z,23.87
2017-12-14T02:11:49.631Z,21.90
2017-12-14T02:14:16.384Z,24.25
2017-12-14T02:16:43.154Z,22.77
2017-12-14T02:19:09.904Z,24.50
2017-12-14T02:21:36.641Z,21.80
2017-12-14T02:24:03.400Z,22.60
2017-12-14T02:26:30.118Z,24.70
2017-12-14T02:28:56.856Z,23.37
2017-12-14T02:31:23.581Z,25.50
2017-12-14T02:33:50.327Z,23.83
2017-12-14T02:36:17.058Z,26.00
2017-12-14T02:38:43.802Z,23.77
2017-12-14T02:41:10.559Z,24.50
2017-12-14T02:43:37.327Z,23.53
2017-12-14T02:46:04.115Z,24.00
2017-12-14T02:48:30.860Z,24.90
2017-12-14T02:50:57.608Z,23.40
2017-12-14T02:53:24.332Z,22.80
2017-12-14T02:55:51.042Z,23.87
2017-12-14T02:58:17.776Z,21.20
2017-12-14T03:00:44.532Z,22.80
2017-12-14T03:03:11.257Z,23.40
2017-12-14T03:05:38.053Z,24.08
2017-12-14T03:08:04.805Z,24.17
2017-12-14T03:10:31.544Z,23.33
2017-12-14T03:12:58.298Z,24.10
2017-12-14T03:15:25.048Z,22.33
2017-12-14T03:17:51.780Z,24.20
2017-12-14T03:20:18.521Z,24.33
2017-12-14T03:22:45.315Z,24.52
2017-12-14T03:25:12.097Z,24.90
2017-12-14T03:27:38.824Z,23.37
2017-12-14T03:30:05.579Z,21.70
2017-12-14T03:32:32.306Z,25.37
2017-12-14T03:34:59.060Z,24.67
2017-12-14T03:37:25.814Z,24.05
2017-12-14T03:39:52.563Z,22.42
2017-12-14T03:42:19.308Z,21.80
2017-12-14T03:44:46.116Z,22.62
2017-12-14T03:47:12.861Z,21.52
2017-12-14T03:49:39.666Z,22.97
2017-12-14T03:52:06.468Z,23.27
2017-12-14T03:54:33.206Z,20.37
2017-12-14T03:56:59.955Z,21.65
2017-12-14T03:59:26.710Z,20.90
2017-12-14T04:01:53.468Z,22.50
2017-12-14T04:04:20.191Z,22.00
2017-12-14T04:06:46.963Z,22.48
2017-12-14T04:09:13.772Z,22.10
2017-12-14T04:11:40.548Z,22.02
2017-12-14T04:14:07.343Z,21.02
2017-12-14T04:16:34.105Z,23.00
2017-12-14T04:19:00.862Z,21.87
2017-12-14T04:21:27.631Z,21.65
2017-12-14T04:23:54.423Z,21.17
2017-12-14T04:26:21.213Z,22.70
2017-12-14T04:28:48.001Z,22.87
2017-12-14T04:31:14.746Z,23.40
2017-12-14T04:33:41.533Z,22.83
2017-12-14T04:36:08.301Z,21.62
2017-12-14T04:38:35.045Z,22.60
2017-12-14T04:41:01.821Z,24.52
2017-12-14T04:43:28.588Z,22.75
2017-12-14T04:45:55.354Z,22.87
2017-12-14T04:48:22.155Z,21.83
2017-12-14T04:50:48.939Z,21.02
2017-12-14T04:53:15.678Z,20.77
2017-12-14T04:55:42.417Z,22.00
2017-12-14T04:58:09.154Z,21.92
2017-12-14T05:00:35.901Z,23.60
2017-12-14T05:03:02.643Z,23.38
2017-12-14T05:05:29.455Z,23.27
2017-12-14T05:07:56.293Z,22.67
2017-12-14T05:10:23.048Z,21.67
2017-12-14T05:12:49.806Z,22.95
2017-12-14T05:15:16.564Z,23.55
2017-12-14T05:17:43.322Z,20.83
2017-12-14T05:20:10.110Z,21.90
2017-12-14T05:22:36.886Z,23.52
2017-12-14T05:25:03.688Z,23.92
2017-12-14T05:27:30.487Z,24.23
2017-12-14T05:29:57.275Z,22.75
2017-12-14T05:32:24.047Z,22.73
2017-12-14T05:34:50.857Z,21.15
2017-12-14T05:37:17.611Z,23.92
2017-12-14T05:39:44.367Z,21.65
2017-12-14T05:42:11.156Z,20.30
2017-12-14T05:44:37.953Z,21.58
2017-12-14T05:47:04.762Z,22.55
2017-12-14T05:49:31.569Z,22.65
2017-12-14T05:51:58.390Z,21.60
2017-12-14T05:54:25.153Z,20.20
2017-12-14T05:56:51.935Z,20.50
2017-12-14T05:59:18.691Z,21.60
2017-12-14T06:01:45.449Z,18.20
2017-12-14T06:04:12.218Z,21.12
2017-12-14T06:06:38.952Z,22.67
2017-12-14T06:09:05.710Z,22.80
2017-12-14T06:11:32.497Z,22.02
2017-12-14T06:13:59.242Z,22.05
2017-12-14T06:16:25.977Z,21.12
2017-12-14T06:18:52.738Z,22.33
2017-12-14T06:21:19.500Z,20.25
2017-12-14T06:23:46.273Z,21.35
2017-12-14T06:26:13.046Z,21.65
2017-12-14T06:28:39.790Z,20.95
2017-12-14T06:31:06.568Z,22.85
2017-12-14T06:33:33.371Z,24.08
2017-12-14T06:36:00.141Z,21.55
2017-12-14T06:38:26.950Z,21.48
2017-12-14T06:40:53.702Z,18.50
2017-12-14T06:43:20.456Z,21.50
2017-12-14T06:45:47.187Z,18.77
2017-12-14T06:48:13.970Z,18.80
2017-12-14T06:50:40.723Z,18.85
2017-12-14T06:53:07.475Z,16.92
2017-12-14T06:55:34.249Z,19.02
2017-12-14T06:58:01.002Z,17.58
2017-12-14T07:00:27.745Z,18.30
2017-12-14T07:03:00.485Z,17.10
2017-12-14T07:05:27.225Z,15.97
2017-12-14T07:07:53.982Z,15.40
2017-12-14T07:10:20.884Z,16.05
2017-12-14T07:12:47.605Z,17.35
2017-12-14T07:15:14.347Z,16.20
2017-12-14T07:17:41.123Z,15.38
2017-12-14T07:20:07.891Z,15.45
2017-12-14T07:22:34.666Z,16.62
2017-12-14T07:25:01.428Z,14.82
2017-12-14T07:27:28.157Z,14.82
2017-12-14T07:29:54.897Z,13.95
2017-12-14T07:32:26.236Z,15.57
2017-12-14T07:34:53.332Z,15.38
2017-12-14T07:40:54.875Z,15.05
2017-12-14T07:46:48.298Z,15.55
2017-12-14T07:49:45.700Z,15.40
2017-12-14T08:07:24.312Z,15.77
2017-12-14T08:09:51.076Z,15.27
2017-12-14T08:12:17.862Z,14.10
2017-12-14T08:15:02.222Z,14.95
2017-12-14T08:17:45.319Z,14.23
2017-12-14T08:20:30.194Z,16.20
2017-12-14T08:23:00.729Z,14.50
2017-12-14T08:25:27.504Z,13.87
2017-12-14T08:27:54.262Z,14.48
2017-12-14T08:30:35.545Z,14.00
2017-12-14T08:33:19.974Z,14.83
2017-12-14T08:35:47.040Z,13.17
2017-12-14T08:38:14.890Z,12.87
2017-12-14T08:40:41.793Z,13.85
2017-12-14T08:43:08.577Z,12.82
2017-12-14T08:45:35.355Z,13.43
2017-12-14T08:48:02.091Z,14.50
2017-12-14T08:50:28.858Z,13.77
2017-12-14T08:52:55.624Z,16.17
2017-12-14T08:55:22.362Z,15.70
2017-12-14T08:57:49.124Z,15.50
2017-12-14T09:00:15.862Z,14.53
2017-12-14T09:02:42.612Z,13.10
2017-12-14T09:05:09.399Z,13.60
2017-12-14T09:07:36.149Z,13.37
2017-12-14T09:10:02.921Z,13.60
2017-12-14T09:12:29.690Z,14.43
2017-12-14T09:14:56.460Z,14.23
2017-12-14T09:17:23.232Z,13.63
2017-12-14T09:19:50.008Z,14.03
2017-12-14T09:22:16.753Z,14.20
2017-12-14T09:24:43.494Z,13.80
2017-12-14T09:27:10.262Z,12.20
2017-12-14T09:29:37.021Z,13.60
2017-12-14T09:32:03.885Z,14.57
2017-12-14T09:34:30.635Z,11.43
2017-12-14T09:36:57.379Z,15.45
2017-12-14T09:39:24.131Z,12.90
2017-12-14T09:41:50.908Z,12.60
2017-12-14T09:44:17.705Z,11.87
2017-12-14T09:46:44.483Z,11.70
2017-12-14T09:49:11.261Z,12.73
2017-12-14T09:51:38.010Z,13.40
2017-12-14T09:54:04.763Z,13.40
2017-12-14T09:56:32.509Z,10.70
2017-12-14T09:59:01.114Z,10.87
2017-12-14T10:01:27.881Z,11.53
2017-12-14T10:03:54.676Z,9.47
2017-12-14T10:06:21.426Z,10.50
2017-12-14T10:08:48.156Z,9.80
2017-12-14T10:11:14.908Z,9.90
2017-12-14T10:13:41.660Z,10.27
2017-12-14T10:16:08.405Z,10.67
2017-12-14T10:18:35.166Z,10.07
2017-12-14T10:21:01.929Z,11.00
2017-12-14T10:23:28.671Z,9.77
2017-12-14T10:25:55.441Z,10.70
2017-12-14T10:28:22.183Z,10.57
2017-12-14T10:30:48.918Z,10.70
2017-12-14T10:33:15.708Z,10.60
2017-12-14T10:35:42.495Z,9.87
2017-12-14T10:38:09.230Z,10.53
2017-12-14T10:40:36.023Z,9.90
2017-12-14T10:43:02.781Z,10.07
2017-12-14T10:45:29.525Z,10.27
2017-12-14T10:47:56.335Z,9.30
2017-12-14T10:50:23.091Z,10.37
2017-12-14T10:52:49.872Z,10.87
2017-12-14T10:55:16.640Z,11.13
2017-12-14T10:57:43.396Z,11.10
2017-12-14T11:00:10.152Z,12.73
2017-12-14T11:02:36.910Z,12.50
2017-12-14T11:05:03.708Z,12.37
2017-12-14T11:07:30.459Z,11.53
2017-12-14T11:09:57.213Z,11.73
2017-12-14T11:12:23.984Z,13.27
2017-12-14T11:14:50.731Z,11.00
2017-12-14T11:17:17.512Z,12.03
2017-12-14T11:19:44.265Z,12.33
2017-12-14T11:22:11.007Z,11.53
2017-12-14T11:24:37.771Z,11.00
2017-12-14T11:27:04.526Z,12.27
2017-12-14T11:29:31.291Z,12.53
2017-12-14T11:31:58.032Z,12.37
2017-12-14T11:34:24.776Z,12.27
2017-12-14T11:36:51.539Z,10.60
2017-12-14T11:39:18.299Z,10.50
2017-12-14T11:41:45.050Z,10.33
2017-12-14T11:44:11.779Z,10.17
2017-12-14T11:46:38.515Z,8.90
2017-12-14T11:49:05.254Z,9.50
2017-12-14T11:51:32.050Z,8.80
2017-12-14T11:53:58.790Z,9.27
2017-12-14T11:56:25.531Z,9.80
2017-12-14T11:58:52.273Z,9.10
2017-12-14T12:01:19.054Z,8.60
2017-12-14T12:03:45.775Z,9.47
2017-12-14T12:06:12.536Z,9.50
2017-12-14T12:08:39.299Z,9.43
2017-12-14T12:11:06.022Z,9.03
2017-12-14T12:13:32.766Z,9.93
2017-12-14T12:15:59.528Z,6.70
2017-12-14T12:18:26.304Z,4.17
2017-12-14T12:20:53.105Z,3.93
2017-12-14T12:23:19.858Z,3.77
2017-12-14T12:25:46.592Z,3.40
2017-12-14T12:28:13.321Z,3.30
2017-12-14T12:30:40.085Z,2.60
2017-12-14T12:33:06.818Z,2.23
2017-12-14T12:35:33.542Z,2.50
2017-12-14T12:38:00.326Z,2.37
2017-12-14T12:40:27.078Z,2.90
2017-12-14T12:42:53.813Z,2.37
2017-12-14T12:45:20.592Z,5.90
2017-12-14T12:47:47.337Z,6.00
2017-12-14T12:50:14.081Z,6.20
2017-12-14T12:52:40.840Z,7.13
2017-12-14T12:55:07.579Z,6.80
2017-12-14T12:57:34.318Z,9.90
2017-12-14T13:00:01.065Z,9.10
2017-12-14T13:02:28.229Z,8.33
2017-12-14T13:04:55.418Z,8.60
2017-12-14T13:07:22.184Z,8.50
2017-12-14T13:09:48.962Z,8.70
2017-12-14T13:12:15.703Z,9.67
2017-12-14T13:14:44.290Z,7.50
2017-12-14T13:17:11.084Z,7.40
2017-12-14T13:19:37.853Z,7.50
2017-12-14T13:22:04.636Z,7.10
2017-12-14T13:24:31.390Z,6.50
2017-12-14T13:26:58.161Z,6.40
2017-12-14T13:29:24.937Z,6.73
2017-12-14T13:31:52.856Z,6.00
2017-12-14T13:34:19.604Z,4.80
2017-12-14T13:36:46.336Z,6.23
2017-12-14T13:39:13.111Z,4.97
2017-12-14T13:41:39.863Z,4.87
2017-12-14T13:44:06.634Z,4.10
2017-12-14T13:46:33.416Z,4.23
2017-12-14T13:49:00.134Z,4.00
2017-12-14T13:51:26.900Z,3.63
2017-12-14T13:53:54.220Z,3.40
2017-12-14T13:56:20.992Z,3.60
2017-12-14T13:58:47.775Z,2.90
2017-12-14T14:01:15.580Z,3.00
2017-12-14T14:03:42.688Z,2.87
2017-12-14T14:06:09.471Z,2.67
2017-12-14T14:08:36.249Z,2.60
2017-12-14T14:11:03.862Z,3.90
2017-12-14T14:13:30.653Z,5.40
2017-12-14T14:15:57.381Z,3.07
2017-12-14T14:18:24.095Z,2.93
2017-12-14T14:20:50.886Z,2.83
2017-12-14T14:23:17.670Z,3.00
2017-12-14T14:25:44.451Z,3.20
2017-12-14T14:28:11.923Z,3.00
2017-12-14T14:30:38.666Z,2.73
2017-12-14T14:33:05.455Z,4.30
2017-12-14T14:35:32.200Z,2.70
2017-12-14T14:37:58.929Z,2.70
2017-12-14T14:40:25.632Z,3.20
2017-12-14T14:42:52.384Z,2.67
2017-12-14T14:45:19.091Z,3.50
2017-12-14T14:47:45.845Z,2.97
2017-12-14T14:50:12.570Z,2.63
2017-12-14T14:52:39.281Z,3.50
2017-12-14T14:55:06.069Z,3.77
2017-12-14T14:57:32.772Z,3.93
2017-12-14T14:59:59.482Z,5.10
2017-12-14T15:02:26.230Z,6.20
2017-12-14T15:04:52.979Z,5.60
2017-12-14T15:07:19.707Z,6.40
2017-12-14T15:09:46.417Z,6.57
2017-12-14T15:12:13.129Z,6.67
2017-12-14T15:14:39.846Z,7.00
2017-12-14T15:17:06.580Z,7.07
2017-12-14T15:19:37.572Z,6.80
2017-12-14T15:22:04.289Z,6.90
2017-12-14T15:24:31.001Z,7.20
2017-12-14T15:26:57.737Z,7.50
2017-12-14T15:29:24.441Z,8.53
2017-12-14T15:31:51.163Z,8.07
2017-12-14T15:34:17.949Z,7.03
2017-12-14T15:36:44.674Z,6.27
2017-12-14T15:39:11.399Z,6.67
2017-12-14T15:41:38.154Z,7.87
2017-12-14T15:44:04.882Z,6.47
2017-12-14T15:46:31.611Z,6.00
2017-12-14T15:48:58.348Z,6.80
2017-12-14T15:51:25.063Z,6.90
2017-12-14T15:53:51.769Z,7.00
2017-12-14T15:56:18.495Z,7.43
2017-12-14T15:58:45.252Z,6.87
2017-12-14T16:01:11.960Z,7.60
2017-12-14T16:03:38.699Z,7.60
2017-12-14T16:06:05.447Z,7.80
2017-12-14T16:08:32.165Z,8.20
2017-12-14T16:10:58.905Z,9.73
2017-12-14T16:13:25.618Z,6.80
2017-12-14T16:15:52.333Z,7.13
2017-12-14T16:18:19.045Z,6.43
2017-12-14T16:20:45.766Z,6.63
2017-12-14T16:23:12.484Z,6.63
2017-12-14T16:25:39.204Z,6.90
2017-12-14T16:28:05.916Z,6.47
2017-12-14T16:30:32.651Z,7.97
2017-12-14T16:32:59.389Z,7.73
2017-12-14T16:35:26.124Z,6.73
2017-12-14T16:37:52.882Z,7.07
2017-12-14T16:40:19.607Z,9.93
2017-12-14T16:42:46.346Z,16.63
2017-12-14T16:45:13.086Z,23.77
2017-12-14T16:47:39.829Z,20.90
2017-12-14T16:50:06.567Z,18.00
2017-12-14T16:52:33.318Z,17.97
2017-12-14T16:55:00.074Z,18.07
2017-12-14T16:57:26.803Z,21.27
2017-12-14T16:59:53.544Z,20.97
2017-12-14T17:02:20.259Z,19.20
2017-12-14T17:04:47.005Z,20.13
2017-12-14T17:07:13.747Z,16.53
2017-12-14T17:09:40.466Z,16.30
2017-12-14T17:12:07.204Z,12.47
2017-12-14T17:14:33.946Z,9.50
2017-12-14T17:17:00.711Z,9.10
2017-12-14T17:19:27.539Z,8.20
2017-12-14T17:21:54.311Z,9.70
2017-12-14T17:24:21.117Z,9.07
2017-12-14T17:26:47.867Z,9.20
2017-12-14T17:29:14.631Z,9.13
2017-12-14T17:31:41.358Z,9.90
2017-12-14T17:34:08.085Z,8.40
2017-12-14T17:36:34.818Z,8.17
2017-12-14T17:39:01.554Z,9.20
2017-12-14T17:41:28.297Z,7.80
2017-12-14T17:43:55.012Z,7.43
2017-12-14T17:46:21.748Z,7.33
2017-12-14T17:48:48.484Z,5.87
2017-12-14T17:51:15.227Z,5.53
2017-12-14T17:53:41.971Z,5.93
2017-12-14T17:56:08.717Z,6.43
2017-12-14T17:58:35.446Z,6.33
2017-12-14T18:01:03.103Z,5.70
2017-12-14T18:03:29.816Z,5.90
2017-12-14T18:05:56.533Z,5.57
2017-12-14T18:08:23.265Z,5.40
2017-12-14T18:10:49.976Z,5.57
2017-12-14T18:13:16.716Z,6.90
2017-12-14T18:15:43.570Z,5.53
2017-12-14T18:18:11.760Z,9.73
2017-12-14T18:20:38.719Z,7.20
2017-12-14T18:23:05.675Z,5.07
2017-12-14T18:25:32.566Z,5.00
2017-12-14T18:27:59.307Z,4.80
2017-12-14T18:30:26.069Z,5.20
2017-12-14T18:32:52.838Z,4.57
2017-12-14T18:35:19.536Z,4.43
2017-12-14T18:37:46.254Z,4.10
2017-12-14T18:40:12.978Z,4.43
2017-12-14T18:42:39.712Z,4.30
2017-12-14T18:45:06.448Z,4.37
2017-12-14T18:47:33.182Z,4.10
2017-12-14T18:49:59.913Z,4.87
2017-12-14T18:52:26.658Z,4.10
2017-12-14T18:54:53.423Z,4.10
2017-12-14T18:57:20.148Z,5.07
2017-12-14T18:59:46.917Z,5.40
2017-12-14T19:02:13.681Z,5.70
2017-12-14T19:04:40.429Z,5.60
2017-12-14T19:07:07.203Z,7.57
2017-12-14T19:09:33.946Z,6.77
2017-12-14T19:12:00.700Z,7.53
2017-12-14T19:14:27.466Z,8.27
2017-12-14T19:16:54.225Z,7.80
2017-12-14T19:19:20.970Z,7.60
2017-12-14T19:21:47.756Z,7.57
2017-12-14T19:24:14.549Z,8.00
2017-12-14T19:26:41.306Z,7.30
2017-12-14T19:29:08.052Z,7.00
2017-12-14T19:31:34.774Z,8.47
2017-12-14T19:34:01.525Z,8.23
2017-12-14T19:36:29.220Z,8.90
2017-12-14T19:38:56.046Z,8.03
2017-12-14T19:41:22.853Z,7.77
2017-12-14T19:43:49.629Z,8.27
2017-12-14T19:46:16.350Z,8.53
2017-12-14T19:48:43.122Z,8.93
2017-12-14T19:51:09.855Z,8.50
2017-12-14T19:53:36.580Z,7.53
2017-12-14T19:56:03.314Z,8.20
2017-12-14T19:58:30.078Z,8.23
2017-12-14T20:00:56.834Z,8.10
2017-12-14T20:03:23.598Z,7.60
2017-12-14T20:05:50.356Z,8.37
2017-12-14T20:08:17.098Z,7.70
2017-12-14T20:10:43.941Z,7.63
2017-12-14T20:13:10.715Z,7.17
2017-12-14T20:15:55.438Z,6.73
2017-12-14T20:18:23.906Z,7.03
2017-12-14T20:20:57.868Z,6.30
2017-12-14T20:23:25.765Z,7.13
2017-12-14T20:25:52.861Z,5.73
2017-12-14T20:28:19.613Z,6.63
2017-12-14T20:30:46.390Z,5.13
2017-12-14T20:33:13.124Z,4.90
2017-12-14T20:35:41.139Z,6.10
2017-12-14T20:38:07.915Z,5.27
2017-12-14T20:40:34.693Z,5.77
2017-12-14T20:43:01.450Z,4.90
2017-12-14T20:45:28.194Z,4.63
2017-12-14T20:47:54.923Z,5.60
2017-12-14T20:50:21.696Z,5.57
2017-12-14T20:52:48.453Z,6.27
2017-12-14T20:55:15.222Z,6.73
2017-12-14T20:57:41.993Z,6.57
2017-12-14T21:00:08.796Z,7.80
2017-12-14T21:02:35.535Z,6.40
2017-12-14T21:05:02.277Z,7.00
2017-12-14T21:07:29.057Z,7.80
2017-12-14T21:09:55.809Z,6.50
2017-12-14T21:12:22.538Z,7.57
2017-12-14T21:14:49.278Z,6.50
2017-12-14T21:17:16.009Z,7.07
2017-12-14T21:19:42.767Z,6.83
2017-12-14T21:22:09.494Z,4.80
2017-12-14T21:24:36.214Z,5.90
2017-12-14T21:27:02.954Z,6.27
2017-12-14T21:29:29.715Z,4.83
2017-12-14T21:31:56.442Z,5.73
2017-12-14T21:34:23.188Z,6.40
2017-12-14T21:36:49.930Z,6.13
2017-12-14T21:39:16.654Z,6.50
2017-12-14T21:41:43.384Z,6.30
2017-12-14T21:44:10.116Z,5.37
2017-12-14T21:46:36.877Z,4.03
2017-12-14T21:49:03.616Z,4.77
2017-12-14T21:51:30.362Z,5.00
2017-12-14T21:53:57.088Z,5.20
2017-12-14T21:56:23.877Z,5.03
2017-12-14T21:58:50.638Z,4.87
2017-12-14T22:01:17.432Z,4.47
2017-12-14T22:03:44.172Z,5.70
2017-12-14T22:06:10.940Z,5.37
2017-12-14T22:08:37.688Z,5.83
2017-12-14T22:11:04.446Z,6.63
2017-12-14T22:13:31.496Z,6.13
2017-12-14T22:15:58.536Z,4.50
2017-12-14T22:18:25.603Z,5.83
2017-12-14T22:20:52.690Z,5.83
2017-12-14T22:23:19.419Z,4.77
2017-12-14T22:25:46.477Z,6.00
2017-12-14T22:28:13.239Z,4.80
2017-12-14T22:30:39.984Z,6.07
2017-12-14T22:33:06.714Z,5.60
2017-12-14T22:35:33.457Z,4.70
2017-12-14T22:38:00.183Z,5.27
2017-12-14T22:40:26.927Z,5.10
2017-12-14T22:42:53.669Z,5.83
2017-12-14T22:45:20.405Z,4.13
2017-12-14T22:47:47.162Z,5.30
2017-12-14T22:50:13.884Z,4.57
2017-12-14T22:52:40.620Z,4.20
2017-12-14T22:55:07.333Z,4.43
2017-12-14T22:57:34.173Z,3.87
2017-12-14T23:00:00.919Z,4.60
2017-12-14T23:02:27.637Z,4.33
2017-12-14T23:04:54.389Z,4.23
2017-12-14T23:07:21.143Z,4.90
2017-12-14T23:09:47.865Z,4.40
2017-12-14T23:12:14.656Z,4.60
2017-12-14T23:14:41.477Z,5.03
2017-12-14T23:17:08.222Z,4.87
2017-12-14T23:19:34.943Z,4.67
2017-12-14T23:22:01.682Z,4.30
2017-12-14T23:24:28.419Z,3.83
2017-12-14T23:26:55.171Z,4.50
2017-12-14T23:29:21.880Z,4.13
2017-12-14T23:31:48.610Z,4.70
2017-12-14T23:34:15.363Z,5.67
2017-12-14T23:36:42.104Z,5.43
2017-12-14T23:39:08.830Z,6.33
2017-12-14T23:41:35.598Z,5.67
2017-12-14T23:44:02.322Z,6.40
2017-12-14T23:46:29.046Z,7.77
2017-12-14T23:48:55.817Z,8.17
2017-12-14T23:51:22.533Z,7.43
2017-12-14T23:53:49.287Z,6.77
2017-12-14T23:56:16.023Z,7.27
2017-12-14T23:58:42.746Z,7.03
